createdAt,value
2018-04-10T00:00:30.823Z,9.15
2018-04-10T00:02:58.658Z,8.89
2018-04-10T00:05:26.373Z,8.99
2018-04-10T00:07:54.186Z,8.91
2018-04-10T00:10:21.966Z,8.74
2018-04-10T00:12:49.577Z,8.89
2018-04-10T00:15:17.305Z,9.24
2018-04-10T00:17:45.091Z,9.22
2018-04-10T00:20:13.017Z,9.05
2018-04-10T00:22:40.877Z,8.83
2018-04-10T00:25:08.788Z,8.88
2018-04-10T00:27:36.321Z,9.03
2018-04-10T00:30:03.946Z,8.95
2018-04-10T00:32:31.762Z,8.74
2018-04-10T00:34:59.447Z,8.64
2018-04-10T00:37:27.257Z,8.46
2018-04-10T00:39:54.961Z,8.67
2018-04-10T00:42:22.618Z,8.67
2018-04-10T00:44:50.368Z,8.62
2018-04-10T00:47:18.319Z,8.40
2018-04-10T00:49:46.182Z,8.19
2018-04-10T00:52:13.861Z,8.24
2018-04-10T00:54:41.502Z,8.60
2018-04-10T00:57:09.313Z,8.46
2018-04-10T00:59:37.002Z,8.61
2018-04-10T01:02:04.744Z,8.72
2018-04-10T01:04:32.397Z,8.50
2018-04-10T01:07:00.377Z,8.26
2018-04-10T01:09:28.098Z,8.22
2018-04-10T01:11:55.906Z,8.25
2018-04-10T01:14:23.778Z,8.39
2018-04-10T01:16:51.538Z,8.45
2018-04-10T01:19:19.219Z,8.58
2018-04-10T01:21:47.031Z,8.39
2018-04-10T01:24:14.684Z,8.26
2018-04-10T01:26:42.397Z,8.35
2018-04-10T01:29:10.156Z,8.71
2018-04-10T01:31:37.876Z,8.62
2018-04-10T01:34:05.638Z,8.77
2018-04-10T01:36:33.326Z,8.59
2018-04-10T01:39:01.058Z,8.72
2018-04-10T01:41:28.642Z,8.36
2018-04-10T01:43:56.317Z,8.76
2018-04-10T01:46:24.358Z,8.51
2018-04-10T01:48:52.093Z,8.33
2018-04-10T01:51:19.776Z,8.49
2018-04-10T01:53:47.492Z,8.63
2018-04-10T01:56:15.318Z,8.75
2018-04-10T01:58:43.293Z,8.94
2018-04-10T02:01:10.968Z,8.95
2018-04-10T02:03:38.667Z,8.77
2018-04-10T02:06:07.420Z,8.45
2018-04-10T02:08:35.732Z,8.56
2018-04-10T02:11:03.456Z,8.62
2018-04-10T02:13:31.437Z,8.39
2018-04-10T02:15:59.222Z,8.22
2018-04-10T02:18:27.111Z,8.47
2018-04-10T02:20:54.923Z,8.64
2018-04-10T02:23:22.650Z,8.67
2018-04-10T02:25:50.945Z,8.65
2018-04-10T02:28:18.633Z,8.78
2018-04-10T02:30:46.263Z,8.67
2018-04-10T02:33:13.915Z,8.68
2018-04-10T02:35:41.620Z,8.68
2018-04-10T02:38:09.437Z,8.49
2018-04-10T02:40:37.189Z,8.33
2018-04-10T02:43:04.960Z,8.45
2018-04-10T02:45:32.819Z,8.68
2018-04-10T02:48:00.607Z,8.89
2018-04-10T02:50:28.593Z,9.05
2018-04-10T02:52:56.279Z,9.13
2018-04-10T02:55:23.935Z,8.85
2018-04-10T02:57:51.604Z,8.69
2018-04-10T03:00:19.645Z,8.87
2018-04-10T03:02:47.472Z,8.97
2018-04-10T03:05:15.344Z,8.92
2018-04-10T03:07:43.069Z,8.95
2018-04-10T03:10:10.874Z,8.86
2018-04-10T03:12:38.684Z,8.59
2018-04-10T03:15:06.301Z,8.57
2018-04-10T03:17:33.835Z,8.51
2018-04-10T03:20:01.543Z,8.76
2018-04-10T03:22:29.200Z,9.02
2018-04-10T03:24:56.824Z,9.11
2018-04-10T03:27:24.681Z,8.92
2018-04-10T03:29:52.498Z,9.12
2018-04-10T03:32:20.329Z,9.30
2018-04-10T03:34:48.070Z,9.48
2018-04-10T03:37:15.631Z,9.02
2018-04-10T03:39:43.457Z,8.68
2018-04-10T03:42:11.163Z,8.85
2018-04-10T03:44:39.095Z,8.78
2018-04-10T03:47:06.769Z,8.65
2018-04-10T03:49:34.553Z,8.61
2018-04-10T03:52:02.243Z,8.67
2018-04-10T03:54:29.824Z,8.51
2018-04-10T03:56:57.469Z,8.41
2018-04-10T03:59:25.189Z,8.55
2018-04-10T04:01:53.080Z,8.42
2018-04-10T04:04:20.973Z,8.42
2018-04-10T04:06:48.610Z,8.46
2018-04-10T04:09:16.423Z,8.42
2018-04-10T04:11:44.134Z,8.43
2018-04-10T04:14:11.895Z,8.64
2018-04-10T04:19:55.435Z,8.75
2018-04-10T04:22:34.958Z,8.61
2018-04-10T04:25:02.469Z,8.60
2018-04-10T04:27:29.999Z,8.29
2018-04-10T04:29:57.541Z,7.94
2018-04-10T04:32:25.330Z,7.75
2018-04-10T04:34:53.044Z,7.80
2018-04-10T04:37:20.898Z,7.90
2018-04-10T04:39:48.720Z,7.78
2018-04-10T04:42:16.449Z,7.81
2018-04-10T04:44:44.509Z,7.92
2018-04-10T04:47:12.429Z,8.12
2018-04-10T04:49:41.148Z,7.79
2018-04-10T04:52:08.766Z,7.63
2018-04-10T04:54:36.544Z,7.61
2018-04-10T04:57:04.094Z,7.45
2018-04-10T04:59:31.672Z,7.55
2018-04-10T05:01:59.286Z,7.62
2018-04-10T05:04:26.950Z,8.08
2018-04-10T05:06:54.620Z,7.99
2018-04-10T05:09:22.583Z,7.80
2018-04-10T05:11:50.315Z,7.50
2018-04-10T05:14:17.962Z,7.41
2018-04-10T05:16:45.575Z,7.60
2018-04-10T05:19:13.213Z,7.91
2018-04-10T05:21:41.309Z,8.13
2018-04-10T05:24:09.074Z,8.29
2018-04-10T05:26:36.700Z,8.32
2018-04-10T05:29:04.522Z,8.13
2018-04-10T05:31:32.315Z,8.32
2018-04-10T05:34:00.120Z,8.35
2018-04-10T05:36:27.974Z,8.41
2018-04-10T05:38:55.615Z,8.76
2018-04-10T05:41:23.288Z,8.76
2018-04-10T05:43:51.000Z,8.35
2018-04-10T05:46:18.579Z,8.50
2018-04-10T05:48:46.165Z,8.70
2018-04-10T05:51:13.827Z,8.74
2018-04-10T05:53:41.568Z,9.00
2018-04-10T05:56:09.419Z,9.09
2018-04-10T05:58:37.135Z,9.26
2018-04-10T06:01:04.814Z,9.50
2018-04-10T06:03:32.634Z,9.72
2018-04-10T06:06:00.283Z,9.95
2018-04-10T06:08:28.135Z,9.99
2018-04-10T06:10:56.090Z,9.83
2018-04-10T06:13:23.840Z,10.10
2018-04-10T06:15:51.790Z,10.27
2018-04-10T06:18:19.388Z,10.48
2018-04-10T06:20:47.101Z,10.76
2018-04-10T06:23:14.866Z,10.85
2018-04-10T06:25:42.568Z,11.33
2018-04-10T06:28:10.376Z,11.27
2018-04-10T06:30:38.114Z,11.53
2018-04-10T06:33:05.897Z,12.03
2018-04-10T06:35:33.515Z,12.31
2018-04-10T06:38:01.415Z,12.21
2018-04-10T06:40:29.189Z,12.61
2018-04-10T06:42:56.897Z,13.14
2018-04-10T06:45:24.697Z,13.37
2018-04-10T06:47:52.315Z,13.54
2018-04-10T06:50:20.127Z,14.07
2018-04-10T06:52:47.882Z,14.29
2018-04-10T06:55:15.635Z,14.17
2018-04-10T06:57:43.417Z,14.35
2018-04-10T07:00:11.230Z,14.85
2018-04-10T07:02:39.300Z,14.72
2018-04-10T07:05:07.085Z,14.75
2018-04-10T07:07:34.885Z,14.81
2018-04-10T07:10:02.735Z,15.06
2018-04-10T07:12:30.415Z,15.00
2018-04-10T07:14:58.521Z,15.28
2018-04-10T07:17:26.159Z,15.31
2018-04-10T07:19:53.789Z,15.27
2018-04-10T07:22:21.534Z,15.63
2018-04-10T07:24:49.192Z,15.57
2018-04-10T07:27:16.892Z,15.74
2018-04-10T07:29:44.719Z,15.53
2018-04-10T07:32:12.365Z,15.61
2018-04-10T07:34:40.052Z,15.84
2018-04-10T07:37:07.655Z,16.75
2018-04-10T07:39:35.468Z,16.14
2018-04-10T07:42:03.306Z,17.10
2018-04-10T07:44:30.941Z,16.51
2018-04-10T07:46:58.736Z,16.13
2018-04-10T07:49:26.422Z,16.42
2018-04-10T07:51:54.100Z,16.44
2018-04-10T07:54:21.885Z,16.31
2018-04-10T07:56:49.650Z,16.54
2018-04-10T07:59:17.674Z,16.79
2018-04-10T08:01:45.379Z,17.55
2018-04-10T08:04:13.120Z,18.29
2018-04-10T08:06:40.937Z,18.82
2018-04-10T08:09:08.827Z,18.92
2018-04-10T08:11:36.584Z,19.85
2018-04-10T08:14:04.257Z,20.25
2018-04-10T08:16:31.991Z,20.41
2018-04-10T08:18:59.650Z,20.35
2018-04-10T08:21:27.726Z,20.24
2018-04-10T08:23:55.406Z,21.01
2018-04-10T08:26:23.135Z,21.33
2018-04-10T08:28:50.942Z,21.07
2018-04-10T08:31:18.944Z,21.01
2018-04-10T08:33:46.844Z,20.85
2018-04-10T08:36:14.759Z,21.08
2018-04-10T08:38:42.529Z,20.13
2018-04-10T08:41:10.469Z,20.60
2018-04-10T08:43:38.109Z,21.27
2018-04-10T08:46:05.690Z,19.61
2018-04-10T08:48:33.510Z,20.31
2018-04-10T08:51:01.199Z,20.65
2018-04-10T08:53:28.719Z,21.18
2018-04-10T08:55:56.264Z,22.11
2018-04-10T08:58:24.035Z,22.49
2018-04-10T09:00:51.769Z,22.22
2018-04-10T09:03:19.548Z,23.58
2018-04-10T09:05:47.409Z,23.37
2018-04-10T09:08:15.041Z,23.93
2018-04-10T09:10:43.221Z,24.27
2018-04-10T09:13:11.605Z,24.31
2018-04-10T09:15:39.295Z,21.78
2018-04-10T09:18:07.161Z,23.89
2018-04-10T09:20:34.829Z,23.75
2018-04-10T09:23:02.819Z,25.17
2018-04-10T09:25:30.509Z,25.77
2018-04-10T09:27:58.099Z,23.93
2018-04-10T09:30:25.921Z,24.61
2018-04-10T09:32:53.675Z,24.89
2018-04-10T09:35:21.419Z,26.22
2018-04-10T09:37:49.029Z,26.04
2018-04-10T09:40:16.774Z,27.24
2018-04-10T09:42:44.437Z,26.77
2018-04-10T09:45:12.091Z,26.90
2018-04-10T09:47:39.723Z,28.13
2018-04-10T09:50:07.276Z,29.42
2018-04-10T09:52:35.010Z,28.38
2018-04-10T09:55:02.738Z,27.07
2018-04-10T09:57:30.268Z,26.94
2018-04-10T09:59:57.888Z,26.18
2018-04-10T10:02:25.413Z,27.78
2018-04-10T10:04:53.214Z,28.36
2018-04-10T10:07:20.882Z,30.40
2018-04-10T10:09:48.518Z,28.87
2018-04-10T10:12:16.268Z,29.36
2018-04-10T10:14:44.117Z,28.53
2018-04-10T10:17:11.828Z,28.84
2018-04-10T10:19:39.621Z,29.17
2018-04-10T10:22:07.203Z,28.44
2018-04-10T10:24:34.841Z,30.42
2018-04-10T10:27:02.424Z,31.66
2018-04-10T10:29:30.109Z,32.36
2018-04-10T10:31:57.910Z,31.70
2018-04-10T10:34:25.764Z,31.35
2018-04-10T10:36:53.447Z,30.68
2018-04-10T10:39:21.047Z,30.93
2018-04-10T10:41:48.782Z,30.30
2018-04-10T10:44:16.360Z,30.52
2018-04-10T10:46:43.973Z,29.04
2018-04-10T10:49:11.705Z,28.75
2018-04-10T10:51:39.386Z,30.60
2018-04-10T10:54:07.005Z,29.92
2018-04-10T10:56:34.771Z,29.89
2018-04-10T10:59:02.763Z,31.29
2018-04-10T11:01:30.637Z,31.91
2018-04-10T11:03:58.444Z,29.81
2018-04-10T11:06:26.205Z,29.83
2018-04-10T11:08:53.869Z,31.82
2018-04-10T11:11:21.539Z,32.39
2018-04-10T11:13:49.186Z,32.41
2018-04-10T11:16:17.001Z,32.63
2018-04-10T11:18:44.581Z,33.11
2018-04-10T11:21:12.173Z,33.01
2018-04-10T11:23:39.861Z,33.33
2018-04-10T11:26:07.723Z,32.93
2018-04-10T11:28:35.369Z,33.38
2018-04-10T11:31:03.143Z,32.19
2018-04-10T11:33:30.993Z,33.93
2018-04-10T11:35:58.679Z,33.00
2018-04-10T11:38:26.413Z,32.23
2018-04-10T11:40:54.251Z,33.25
2018-04-10T11:43:21.985Z,32.29
2018-04-10T11:45:49.747Z,32.15
2018-04-10T11:48:17.581Z,33.17
2018-04-10T11:50:45.287Z,31.79
2018-04-10T11:53:13.109Z,33.11
2018-04-10T11:55:40.837Z,31.09
2018-04-10T11:58:08.938Z,31.72
2018-04-10T12:00:36.860Z,33.20
2018-04-10T12:03:04.634Z,31.46
2018-04-10T12:05:32.405Z,33.84
2018-04-10T12:08:00.104Z,35.16
2018-04-10T12:10:27.745Z,35.30
2018-04-10T12:12:55.493Z,35.75
2018-04-10T12:15:23.446Z,35.12
2018-04-10T12:17:51.288Z,34.11
2018-04-10T12:20:19.162Z,34.63
2018-04-10T12:22:46.943Z,34.97
2018-04-10T12:25:14.878Z,35.74
2018-04-10T12:27:42.713Z,35.42
2018-04-10T12:30:10.623Z,35.03
2018-04-10T12:32:38.307Z,34.15
2018-04-10T12:35:06.009Z,36.04
2018-04-10T12:37:33.695Z,32.28
2018-04-10T12:40:01.533Z,33.93
2018-04-10T12:42:29.300Z,34.10
2018-04-10T12:44:57.108Z,34.88
2018-04-10T12:47:24.842Z,35.73
2018-04-10T12:49:52.559Z,35.28
2018-04-10T12:52:20.705Z,33.40
2018-04-10T12:54:49.421Z,31.50
2018-04-10T12:57:17.169Z,33.62
2018-04-10T12:59:44.742Z,34.33
2018-04-10T13:02:12.379Z,34.51
2018-04-10T13:04:40.330Z,33.80
2018-04-10T13:07:07.992Z,32.48
2018-04-10T13:09:35.673Z,31.41
2018-04-10T13:12:03.314Z,32.06
2018-04-10T13:14:30.887Z,34.15
2018-04-10T13:16:58.683Z,35.18
2018-04-10T13:19:26.337Z,33.21
2018-04-10T13:21:53.967Z,33.06
2018-04-10T13:24:21.593Z,33.09
2018-04-10T13:26:49.259Z,31.91
2018-04-10T13:29:16.839Z,32.10
2018-04-10T13:31:44.782Z,31.38
2018-04-10T13:34:12.896Z,30.85
2018-04-10T13:36:41.246Z,29.14
2018-04-10T13:39:09.061Z,27.49
2018-04-10T13:41:36.639Z,26.93
2018-04-10T13:44:04.501Z,26.67
2018-04-10T13:46:32.102Z,26.63
2018-04-10T13:48:59.914Z,26.92
2018-04-10T13:51:28.194Z,26.52
2018-04-10T13:53:55.934Z,26.82
2018-04-10T13:56:23.660Z,26.42
2018-04-10T13:58:51.629Z,25.99
2018-04-10T14:01:19.454Z,26.11
2018-04-10T14:03:47.092Z,25.84
2018-04-10T14:06:15.159Z,25.74
2018-04-10T14:08:42.864Z,25.71
2018-04-10T14:11:10.581Z,25.66
2018-04-10T14:13:38.139Z,25.05
2018-04-10T14:16:05.727Z,25.11
2018-04-10T14:18:33.302Z,24.64
2018-04-10T14:21:00.999Z,24.69
2018-04-10T14:23:28.570Z,24.26
2018-04-10T14:25:56.269Z,24.18
2018-04-10T14:28:23.875Z,23.64
2018-04-10T14:30:51.953Z,23.50
2018-04-10T14:33:19.874Z,23.09
2018-04-10T14:35:47.599Z,22.98
2018-04-10T14:38:15.406Z,22.84
2018-04-10T14:40:43.074Z,22.48
2018-04-10T14:43:10.778Z,21.97
2018-04-10T14:45:38.611Z,21.16
2018-04-10T14:48:06.348Z,20.82
2018-04-10T14:50:34.290Z,21.01
2018-04-10T14:53:02.373Z,21.14
2018-04-10T14:55:30.545Z,21.04
2018-04-10T14:57:58.469Z,20.26
2018-04-10T15:00:26.149Z,19.27
2018-04-10T15:02:53.984Z,18.95
2018-04-10T15:05:21.838Z,18.87
2018-04-10T15:07:49.565Z,18.69
2018-04-10T15:10:17.483Z,18.97
2018-04-10T15:12:45.233Z,18.93
2018-04-10T15:15:13.164Z,18.92
2018-04-10T15:17:40.880Z,19.31
2018-04-10T15:20:08.634Z,19.16
2018-04-10T15:22:36.238Z,18.82
2018-04-10T15:25:03.935Z,18.80
2018-04-10T15:27:31.677Z,17.98
2018-04-10T15:29:59.475Z,17.70
2018-04-10T15:32:27.155Z,17.67
2018-04-10T15:34:55.095Z,16.99
2018-04-10T15:37:22.918Z,16.85
2018-04-10T15:39:50.729Z,16.41
2018-04-10T15:42:18.563Z,16.38
2018-04-10T15:44:46.349Z,15.65
2018-04-10T15:47:14.131Z,14.56
2018-04-10T15:49:41.973Z,14.12
2018-04-10T15:52:09.764Z,14.25
2018-04-10T15:54:37.429Z,13.83
2018-04-10T15:57:05.106Z,13.26
2018-04-10T15:59:33.914Z,13.06
2018-04-10T16:02:01.631Z,12.95
2018-04-10T16:04:29.429Z,12.57
2018-04-10T16:06:57.245Z,11.91
2018-04-10T16:09:24.869Z,11.80
2018-04-10T16:11:52.664Z,11.60
2018-04-10T16:14:20.408Z,11.67
2018-04-10T16:16:48.177Z,11.36
2018-04-10T16:19:16.120Z,11.04
2018-04-10T16:21:43.816Z,11.02
2018-04-10T16:24:11.498Z,10.88
2018-04-10T16:26:39.333Z,10.85
2018-04-10T16:29:06.978Z,10.92
2018-04-10T16:31:34.879Z,10.93
2018-04-10T16:34:02.594Z,10.83
2018-04-10T16:36:30.385Z,10.89
2018-04-10T16:38:58.254Z,10.72
2018-04-10T16:41:25.993Z,10.96
2018-04-10T16:43:53.920Z,10.68
2018-04-10T16:46:21.645Z,10.45
2018-04-10T16:48:49.283Z,10.43
2018-04-10T16:51:17.095Z,10.75
2018-04-10T16:53:44.980Z,10.55
2018-04-10T16:56:12.839Z,10.36
2018-04-10T16:58:40.578Z,10.58
2018-04-10T17:01:08.323Z,10.41
2018-04-10T17:03:36.089Z,10.15
2018-04-10T17:06:03.988Z,10.15
2018-04-10T17:08:31.738Z,10.16
2018-04-10T17:10:59.563Z,10.20
2018-04-10T17:13:27.313Z,10.23
2018-04-10T17:15:55.335Z,10.62
2018-04-10T17:18:23.179Z,10.45
2018-04-10T17:20:51.031Z,10.86
2018-04-10T17:23:18.695Z,10.57
2018-04-10T17:25:46.450Z,10.33
2018-04-10T17:28:14.483Z,10.19
2018-04-10T17:30:42.301Z,10.29
2018-04-10T17:33:09.908Z,10.24
2018-04-10T17:35:37.715Z,10.33
2018-04-10T17:38:05.590Z,10.27
2018-04-10T17:40:33.373Z,10.33
2018-04-10T17:43:01.163Z,10.34
2018-04-10T17:45:29.874Z,10.41
2018-04-10T17:47:57.610Z,10.32
2018-04-10T17:50:25.564Z,10.27
2018-04-10T17:52:53.199Z,10.34
2018-04-10T17:55:20.753Z,10.32
2018-04-10T17:57:48.585Z,10.30
2018-04-10T18:00:16.500Z,10.47
2018-04-10T18:02:44.302Z,10.45
2018-04-10T18:05:12.005Z,10.42
2018-04-10T18:07:39.745Z,10.52
2018-04-10T18:10:07.683Z,10.42
2018-04-10T18:12:35.644Z,10.38
2018-04-10T18:15:03.895Z,10.38
2018-04-10T18:17:31.629Z,10.59
2018-04-10T18:19:59.419Z,10.63
2018-04-10T18:22:27.119Z,10.46
2018-04-10T18:24:54.956Z,10.52
2018-04-10T18:27:22.943Z,10.17
2018-04-10T18:29:50.700Z,10.29
2018-04-10T18:32:18.649Z,10.58
2018-04-10T18:34:46.429Z,10.51
2018-04-10T18:37:14.165Z,10.27
2018-04-10T18:39:42.075Z,10.15
2018-04-10T18:42:09.985Z,10.28
2018-04-10T18:44:37.714Z,10.24
2018-04-10T18:47:05.806Z,10.23
2018-04-10T18:49:33.783Z,10.18
2018-04-10T18:52:01.761Z,10.01
2018-04-10T18:54:29.526Z,9.93
2018-04-10T18:56:57.384Z,10.06
2018-04-10T18:59:25.667Z,10.08
2018-04-10T19:01:53.470Z,10.11
2018-04-10T19:04:21.299Z,10.46
2018-04-10T19:06:49.080Z,10.65
2018-04-10T19:09:17.254Z,10.44
2018-04-10T19:11:45.185Z,10.54
2018-04-10T19:14:13.005Z,10.60
2018-04-10T19:16:40.911Z,10.16
2018-04-10T19:19:08.773Z,10.63
2018-04-10T19:21:36.517Z,10.18
2018-04-10T19:24:04.522Z,9.91
2018-04-10T19:26:32.341Z,9.95
2018-04-10T19:29:00.368Z,9.84
2018-04-10T19:31:28.221Z,10.08
2018-04-10T19:33:56.174Z,10.04
2018-04-10T19:36:24.349Z,10.01
2018-04-10T19:38:52.229Z,10.00
2018-04-10T19:41:20.095Z,10.17
2018-04-10T19:43:48.116Z,9.84
2018-04-10T19:46:15.971Z,9.94
2018-04-10T19:48:44.025Z,9.91
2018-04-10T19:51:11.889Z,9.78
2018-04-10T19:53:39.720Z,9.92
2018-04-10T19:56:07.614Z,9.89
2018-04-10T19:58:35.506Z,9.80
2018-04-10T20:01:03.338Z,9.79
2018-04-10T20:03:31.439Z,9.82
2018-04-10T20:05:59.335Z,9.97
2018-04-10T20:08:27.216Z,9.87
2018-04-10T20:10:54.980Z,9.95
2018-04-10T20:13:22.938Z,10.09
2018-04-10T20:15:50.822Z,9.97
2018-04-10T20:18:18.821Z,9.76
2018-04-10T20:20:46.885Z,9.78
2018-04-10T20:23:14.870Z,9.73
2018-04-10T20:25:42.671Z,9.85
2018-04-10T20:28:10.630Z,9.74
2018-04-10T20:30:38.449Z,9.64
2018-04-10T20:33:06.205Z,9.68
2018-04-10T20:35:34.101Z,9.54
2018-04-10T20:38:01.854Z,9.74
2018-04-10T20:40:29.669Z,9.67
2018-04-10T20:42:57.362Z,9.53
2018-04-10T20:45:25.426Z,9.50
2018-04-10T20:47:53.085Z,9.44
2018-04-10T20:50:20.768Z,9.60
2018-04-10T20:52:48.509Z,9.56
2018-04-10T20:55:16.334Z,9.54
2018-04-10T20:57:44.269Z,9.74
2018-04-10T21:00:12.209Z,9.53
2018-04-10T21:02:39.780Z,9.34
2018-04-10T21:05:07.432Z,9.66
2018-04-10T21:07:35.272Z,9.50
2018-04-10T21:10:03.127Z,9.21
2018-04-10T21:12:30.887Z,9.30
2018-04-10T21:14:58.855Z,9.36
2018-04-10T21:17:26.575Z,9.33
2018-04-10T21:19:54.282Z,9.13
2018-04-10T21:22:22.058Z,8.96
2018-04-10T21:24:49.701Z,9.13
2018-04-10T21:27:17.333Z,9.12
2018-04-10T21:29:45.076Z,9.09
2018-04-10T21:32:12.752Z,9.50
2018-04-10T21:34:40.438Z,9.44
2018-04-10T21:37:08.031Z,9.47
2018-04-10T21:39:35.905Z,9.51
2018-04-10T21:42:03.711Z,9.13
2018-04-10T21:44:31.341Z,8.90
2018-04-10T21:46:59.150Z,8.80
2018-04-10T21:49:26.931Z,8.88
2018-04-10T21:51:54.682Z,8.78
2018-04-10T21:54:22.265Z,8.97
2018-04-10T21:56:49.970Z,8.95
2018-04-10T21:59:17.837Z,8.99
2018-04-10T22:01:45.475Z,8.67
2018-04-10T22:04:13.224Z,9.03
2018-04-10T22:06:41.511Z,9.01
2018-04-10T22:09:09.070Z,8.94
2018-04-10T22:11:36.910Z,8.77
2018-04-10T22:14:04.680Z,9.02
2018-04-10T22:16:32.391Z,9.02
2018-04-10T22:19:00.152Z,9.31
2018-04-10T22:21:28.297Z,9.12
2018-04-10T22:23:56.056Z,8.82
2018-04-10T22:26:23.917Z,8.92
2018-04-10T22:28:51.606Z,8.85
2018-04-10T22:31:19.381Z,8.49
2018-04-10T22:33:47.052Z,8.21
2018-04-10T22:36:15.009Z,8.28
2018-04-10T22:38:42.827Z,8.58
2018-04-10T22:41:10.505Z,8.49
2018-04-10T22:43:38.145Z,8.33
2018-04-10T22:46:05.820Z,8.43
2018-04-10T22:48:33.557Z,8.37
2018-04-10T22:51:01.344Z,8.41
2018-04-10T22:53:29.227Z,8.37
2018-04-10T22:55:57.011Z,8.39
2018-04-10T22:58:24.732Z,8.20
2018-04-10T23:00:52.446Z,8.11
2018-04-10T23:03:20.100Z,7.66
2018-04-10T23:05:47.773Z,8.00
2018-04-10T23:08:15.442Z,8.07
2018-04-10T23:10:43.135Z,7.57
2018-04-10T23:13:10.899Z,7.65
2018-04-10T23:15:39.440Z,7.89
2018-04-10T23:18:07.002Z,7.79
2018-04-10T23:20:34.732Z,7.12
2018-04-10T23:23:02.479Z,6.74
2018-04-10T23:25:30.177Z,6.99
2018-04-10T23:27:57.731Z,6.96
2018-04-10T23:30:25.667Z,7.27
2018-04-10T23:32:53.529Z,7.33
2018-04-10T23:35:21.117Z,7.15
2018-04-10T23:37:48.873Z,7.21
2018-04-10T23:40:16.506Z,7.25
2018-04-10T23:42:44.388Z,7.40
2018-04-10T23:45:12.196Z,6.97
2018-04-10T23:47:39.945Z,6.72
2018-04-10T23:50:07.670Z,6.77
2018-04-10T23:52:35.495Z,6.80
2018-04-10T23:55:03.283Z,6.72
2018-04-10T23:57:30.918Z,6.85
2018-04-10T23:59:58.842Z,6.92
